2005 RAYMOND (2004365S13120)


On this page: IBTrACS data - Map and Plots - Positions - Intensities - Original source data

Summary

Start Dec 30
End Jan 10
Basins SI
SP
LMI 50 kt
Sources jtwc_sh
bom
neumann
In WMO? Yes
Previous storm 2005 JUDY (SP)
Previous in basin 2005 CHAMBO (SI)
Concurrent storms 2005 CHAMBO (SI)
2005 RAYMOND (SI)
2005 KERRY (SP)
2005 SALLY (SI)
2005 MISSING (NI)
Next in basin 2005 SALLY (SI)
Next storm 2005 KERRY (SP)

top of page IBTrACS Data: File Access

Image of storm

top of page Plots:

Map of storm track will not appear if FTP is down
Time series of cyclone Maximum Sustained Wind will not appear if FTP is down
Time series of cyclone Minimum Central Pressure will not appear if FTP is down

top of page Track Data:Position

jtwc_sh bom neumann
Date Lat Lon Lat Lon Lat Lon
2004-12-30 00:00:00 -12.9 119.8
2004-12-30 06:00:00 -13.6 120.5 -13.3 120.2 -13.6 120.5
2004-12-30 12:00:00 -13.9 120.5 -13.7 120.6 -13.9 120.5
2004-12-30 18:00:00 -14.4 120.6 -14.0 120.9 -14.4 120.6
2004-12-31 00:00:00 -14.8 120.6 -14.2 121.1 -14.8 120.6
2004-12-31 06:00:00 -15.0 120.7 -14.3 121.2 -15.0 120.7
2004-12-31 12:00:00 -15.1 120.9 -14.5 121.3 -15.1 120.9
2004-12-31 18:00:00 -15.0 121.2 -14.6 121.3 -15.0 121.2
2005-01-01 00:00:00 -14.7 121.4 -14.3 121.3 -14.7 121.4
2005-01-01 06:00:00 -14.4 121.7 -14.4 121.8 -14.4 121.7
2005-01-01 12:00:00 -14.2 122.2 -14.5 122.3 -14.2 122.2
2005-01-01 18:00:00 -14.2 122.6 -14.4 122.7 -14.2 122.6
2005-01-02 00:00:00 -14.2 123.1 -14.2 123.2 -14.2 123.1
2005-01-02 06:00:00 -14.4 123.7 -14.0 124.0 -14.4 123.7
2005-01-02 12:00:00 -14.7 124.3 -14.2 125.3 -14.7 124.3
2005-01-02 18:00:00 -15.2 124.7 -14.8 127.5 -15.2 124.7
2005-01-03 00:00:00 -16.0 125.5 -15.2 129.2 -16.0 125.5
2005-01-03 06:00:00 -17.0 126.5 -16.5 130.2 -17.0 126.5
2005-01-03 12:00:00 -17.3 130.7
2005-01-03 18:00:00 -17.5 132.0
2005-01-04 00:00:00 -17.8 134.2
2005-01-04 06:00:00 -18.4 134.5
2005-01-04 12:00:00 -18.5 136.5
2005-01-04 18:00:00 -18.0 137.0
2005-01-05 00:00:00 -17.5 137.5
jtwc_sh bom neumann
2005-01-05 06:00:00 -17.1 137.8
2005-01-05 12:00:00 -16.8 138.3
2005-01-05 18:00:00 -16.6 138.7
2005-01-06 00:00:00 -16.2 139.1
2005-01-06 06:00:00 -16.2 139.8
2005-01-06 12:00:00 -16.8 140.1
2005-01-06 18:00:00 -16.7 140.4
2005-01-07 00:00:00 -16.3 140.6
2005-01-07 06:00:00 -16.0 139.6
2005-01-07 12:00:00 -15.9 139.4
2005-01-07 18:00:00 -15.6 138.9
2005-01-08 00:00:00 -15.5 138.9
2005-01-08 06:00:00 -15.3 138.8
2005-01-08 12:00:00 -15.2 138.7
2005-01-08 18:00:00 -15.1 138.6
2005-01-09 00:00:00 -14.6 138.2
2005-01-09 06:00:00 -14.6 138.1
2005-01-09 12:00:00 -14.6 137.6
2005-01-09 18:00:00 -14.6 137.1
2005-01-10 00:00:00 -14.7 136.6

top of pageTrack Data:Intensity

jtwc_sh bom neumann
Date Wind Pres Wind Pres Wind Pres
2004-12-30 00:00:00 20. 1004.
2004-12-30 06:00:00 15. 1006. 25. 1002. 15.
2004-12-30 12:00:00 20. 1004. 25. 1002. 20.
2004-12-30 18:00:00 25. 1002. 25. 1000. 25.
2004-12-31 00:00:00 25. 1002. 25. 998. 25.
2004-12-31 06:00:00 25. 1002. 30. 995. 25.
2004-12-31 12:00:00 30. 1000. 30. 995. 30.
2004-12-31 18:00:00 35. 997. 30. 995. 35.
2005-01-01 00:00:00 35. 997. 35. 995. 35.
2005-01-01 06:00:00 35. 997. 35. 995. 35.
2005-01-01 12:00:00 35. 997. 35. 995. 35.
2005-01-01 18:00:00 35. 997. 35. 990. 35.
2005-01-02 00:00:00 45. 991. 45. 985. 45.
2005-01-02 06:00:00 50. 987. 45. 985. 50.
2005-01-02 12:00:00 50. 987. 45. 985. 50.
2005-01-02 18:00:00 45. 991. 35. 993. 45.
2005-01-03 00:00:00 40. 994. 30. 1000. 40.
2005-01-03 06:00:00 30. 1000. 20. 999. 30.
2005-01-03 12:00:00 15. 999.
2005-01-03 18:00:00 15. 999.
2005-01-04 00:00:00 15. 999.
2005-01-04 06:00:00 15. 997.
2005-01-04 12:00:00 15. 999.
2005-01-04 18:00:00 15. 999.
2005-01-05 00:00:00 15. 1000.
jtwc_sh bom neumann
2005-01-05 06:00:00 15. 999.
2005-01-05 12:00:00 15. 999.
2005-01-05 18:00:00 15. 1000.
2005-01-06 00:00:00 15. 1001.
2005-01-06 06:00:00 15. 1001.
2005-01-06 12:00:00 15. 1002.
2005-01-06 18:00:00 15. 1002.
2005-01-07 00:00:00 15. 1002.
2005-01-07 06:00:00 15. 1001.
2005-01-07 12:00:00 15. 1001.
2005-01-07 18:00:00 15. 1001.
2005-01-08 00:00:00 15. 1001.
2005-01-08 06:00:00 15. 1001.
2005-01-08 12:00:00 15. 1002.
2005-01-08 18:00:00 15. 1002.
2005-01-09 00:00:00 15. 1002.
2005-01-09 06:00:00 15. 1002.
2005-01-09 12:00:00 15. 1003.
2005-01-09 18:00:00 15. 1003.
2005-01-10 00:00:00 15. 1004.

top of page Links to source data

Source Source file Format
jtwc_sh bsh072005.txt ATCF
bom IDCKMSTM0S.csv:Line=23143:RAYMOND CSV file (from Excel file)
neumann tracks.sh:Storm=1309:Raymond:BSH072005:JTWC HURDAT